createdAt,value
2018-12-10T00:01:26.885Z,5.30
2018-12-10T00:06:05.720Z,5.30
2018-12-10T00:10:44.472Z,5.30
2018-12-10T00:15:23.393Z,5.30
2018-12-10T00:20:02.152Z,5.30
2018-12-10T00:24:41.017Z,5.20
2018-12-10T00:29:19.745Z,5.10
2018-12-10T00:33:58.622Z,5.10
2018-12-10T00:38:37.428Z,5.00
2018-12-10T00:43:16.226Z,4.90
2018-12-10T00:47:54.956Z,4.90
2018-12-10T00:52:33.840Z,4.80
2018-12-10T00:57:12.716Z,4.80
2018-12-10T01:01:51.402Z,4.80
2018-12-10T01:06:30.264Z,4.70
2018-12-10T01:11:09.087Z,4.60
2018-12-10T01:15:47.934Z,4.60
2018-12-10T01:20:26.844Z,4.60
2018-12-10T01:25:06.636Z,4.60
2018-12-10T01:29:45.291Z,4.60
2018-12-10T01:34:24.108Z,4.60
2018-12-10T01:39:04.462Z,4.60
2018-12-10T01:43:43.231Z,4.50
2018-12-10T01:48:22.054Z,4.60
2018-12-10T01:53:00.639Z,4.70
2018-12-10T01:57:39.349Z,4.80
2018-12-10T02:02:18.192Z,4.90
2018-12-10T02:06:57.119Z,5.00
2018-12-10T02:11:35.815Z,5.10
2018-12-10T02:16:14.681Z,5.20
2018-12-10T02:20:53.497Z,5.20
2018-12-10T02:25:32.216Z,5.20
2018-12-10T02:30:11.154Z,5.20
2018-12-10T02:34:49.967Z,5.20
2018-12-10T02:39:28.768Z,5.20
2018-12-10T02:44:07.455Z,5.20
2018-12-10T02:48:46.382Z,5.00
2018-12-10T02:53:25.256Z,4.90
2018-12-10T02:58:04.048Z,4.80
2018-12-10T03:02:42.800Z,4.70
2018-12-10T03:07:21.605Z,4.80
2018-12-10T03:12:00.312Z,4.80
2018-12-10T03:16:39.195Z,4.70
2018-12-10T03:21:18.063Z,4.70
2018-12-10T03:25:56.880Z,4.60
2018-12-10T03:30:35.661Z,4.60
2018-12-10T03:35:14.556Z,4.60
2018-12-10T03:39:53.494Z,4.50
2018-12-10T03:44:32.105Z,4.50
2018-12-10T03:49:10.964Z,4.50
2018-12-10T03:53:49.768Z,4.40
2018-12-10T03:58:28.511Z,4.50
2018-12-10T04:03:07.223Z,4.50
2018-12-10T04:07:45.891Z,4.60
2018-12-10T04:12:24.703Z,4.60
2018-12-10T04:17:03.792Z,4.60
2018-12-10T04:21:42.612Z,4.60
2018-12-10T04:26:21.516Z,4.50
2018-12-10T04:31:00.364Z,4.40
2018-12-10T04:35:39.305Z,4.40
2018-12-10T04:40:18.156Z,4.30
2018-12-10T04:44:57.123Z,4.20
2018-12-10T04:49:35.924Z,4.20
2018-12-10T04:54:14.517Z,4.20
2018-12-10T04:58:53.232Z,4.10
2018-12-10T05:03:32.065Z,4.20
2018-12-10T05:08:10.760Z,4.30
2018-12-10T05:12:49.621Z,4.40
2018-12-10T05:17:28.544Z,4.60
2018-12-10T05:22:07.280Z,4.70
2018-12-10T05:26:45.885Z,4.70
2018-12-10T05:31:24.874Z,4.80
2018-12-10T05:36:03.906Z,4.80
2018-12-10T05:40:42.750Z,4.70
2018-12-10T05:45:21.727Z,4.60
2018-12-10T05:50:00.507Z,4.50
2018-12-10T05:54:39.204Z,4.30
2018-12-10T05:59:17.923Z,4.20
2018-12-10T06:03:56.635Z,4.00
2018-12-10T06:08:35.268Z,3.90
2018-12-10T06:13:14.023Z,3.80
2018-12-10T06:17:52.824Z,3.80
2018-12-10T06:22:31.439Z,3.70
2018-12-10T06:27:10.134Z,3.60
2018-12-10T06:31:49.085Z,3.50
2018-12-10T06:36:27.903Z,3.40
2018-12-10T06:41:07.176Z,3.50
2018-12-10T06:45:45.903Z,3.70
2018-12-10T06:50:24.804Z,3.90
2018-12-10T06:55:04.059Z,4.10
2018-12-10T06:59:42.693Z,4.10
2018-12-10T07:04:21.625Z,4.10
2018-12-10T07:09:00.368Z,4.10
2018-12-10T07:13:39.144Z,4.10
2018-12-10T07:18:18.072Z,4.10
2018-12-10T07:22:57.080Z,4.10
2018-12-10T07:27:35.839Z,4.00
2018-12-10T07:32:14.624Z,4.00
2018-12-10T07:36:53.427Z,4.00
2018-12-10T07:41:32.251Z,4.00
2018-12-10T07:46:10.976Z,4.00
2018-12-10T07:50:49.810Z,4.00
2018-12-10T07:55:28.657Z,4.10
2018-12-10T08:00:07.300Z,4.20
2018-12-10T08:04:45.920Z,4.20
2018-12-10T08:09:24.728Z,4.30
2018-12-10T08:14:03.663Z,4.30
2018-12-10T08:18:42.585Z,4.50
2018-12-10T08:23:21.511Z,4.70
2018-12-10T08:28:00.211Z,4.80
2018-12-10T08:32:39.019Z,4.90
2018-12-10T08:37:17.891Z,4.80
2018-12-10T08:41:56.967Z,4.70
2018-12-10T08:46:35.673Z,4.70
2018-12-10T08:51:14.504Z,4.60
2018-12-10T08:55:53.210Z,4.60
2018-12-10T09:00:31.881Z,4.60
2018-12-10T09:05:10.620Z,4.70
2018-12-10T09:09:49.459Z,4.90
2018-12-10T09:14:28.245Z,5.40
2018-12-10T09:19:06.995Z,5.60
2018-12-10T09:23:45.720Z,6.10
2018-12-10T09:28:24.456Z,6.30
2018-12-10T09:33:03.205Z,6.40
2018-12-10T09:37:42.395Z,6.70
2018-12-10T09:42:21.039Z,7.20
2018-12-10T09:46:59.944Z,7.40
2018-12-10T09:51:38.667Z,7.40
2018-12-10T09:56:17.319Z,7.50
2018-12-10T10:00:56.153Z,7.70
2018-12-10T10:05:34.833Z,7.80
2018-12-10T10:10:13.695Z,7.80
2018-12-10T10:14:53.812Z,7.90
2018-12-10T10:19:32.692Z,7.80
2018-12-10T10:24:11.443Z,7.50
2018-12-10T10:28:50.229Z,7.30
2018-12-10T10:33:32.410Z,7.40
2018-12-10T10:38:09.712Z,7.70
2018-12-10T10:42:48.603Z,8.10
2018-12-10T10:47:27.353Z,8.10
2018-12-10T10:52:07.016Z,8.30
2018-12-10T10:56:46.488Z,8.20
2018-12-10T11:01:27.954Z,8.00
2018-12-10T11:06:07.145Z,8.00
2018-12-10T11:10:45.752Z,8.20
2018-12-10T11:15:24.485Z,8.30
2018-12-10T11:20:04.039Z,8.20
2018-12-10T11:24:42.724Z,8.00
2018-12-10T11:29:21.420Z,8.00
2018-12-10T11:34:00.184Z,8.00
2018-12-10T11:38:38.892Z,8.10
2018-12-10T11:43:17.536Z,8.10
2018-12-10T11:47:56.145Z,8.20
2018-12-10T11:52:35.004Z,8.40
2018-12-10T11:57:13.764Z,8.60
2018-12-10T12:01:52.688Z,8.50
2018-12-10T12:06:31.363Z,8.20
2018-12-10T12:11:10.313Z,8.10
2018-12-10T12:15:49.120Z,8.10
2018-12-10T12:20:27.792Z,8.10
2018-12-10T12:25:06.831Z,8.20
2018-12-10T12:29:45.579Z,8.20
2018-12-10T12:34:24.401Z,8.10
2018-12-10T12:39:04.860Z,8.00
2018-12-10T12:43:43.713Z,8.00
2018-12-10T12:48:22.765Z,8.10
2018-12-10T12:53:01.573Z,7.70
2018-12-10T12:57:40.298Z,7.30
2018-12-10T13:02:19.116Z,7.30
2018-12-10T13:06:57.983Z,7.40
2018-12-10T13:11:37.230Z,7.40
2018-12-10T13:16:16.342Z,7.50
2018-12-10T13:20:55.697Z,7.60
2018-12-10T13:25:34.539Z,7.80
2018-12-10T13:30:13.348Z,7.90
2018-12-10T13:34:52.116Z,8.10
2018-12-10T13:39:30.790Z,8.10
2018-12-10T13:44:09.487Z,8.20
2018-12-10T13:48:48.260Z,8.20
2018-12-10T13:53:28.060Z,8.20
2018-12-10T13:58:06.940Z,8.20
2018-12-10T14:02:45.796Z,8.30
2018-12-10T14:07:24.588Z,8.20
2018-12-10T14:12:03.356Z,8.10
2018-12-10T14:16:42.077Z,8.00
2018-12-10T14:21:21.007Z,8.00
2018-12-10T14:25:59.752Z,8.00
2018-12-10T14:30:38.999Z,7.90
2018-12-10T14:35:17.777Z,7.90
2018-12-10T14:39:56.454Z,7.70
2018-12-10T14:44:35.144Z,7.70
2018-12-10T14:49:13.974Z,7.60
2018-12-10T14:53:52.846Z,7.70
2018-12-10T14:58:31.695Z,7.60
2018-12-10T15:03:10.472Z,7.50
2018-12-10T15:07:49.297Z,7.30
2018-12-10T15:12:28.298Z,7.10
2018-12-10T15:17:07.128Z,7.10
2018-12-10T15:21:45.872Z,7.10
2018-12-10T15:26:24.750Z,7.00
2018-12-10T15:31:03.577Z,6.90
2018-12-10T15:35:42.482Z,6.70
2018-12-10T15:40:21.332Z,6.50
2018-12-10T15:45:00.368Z,6.40
2018-12-10T15:49:39.120Z,6.30
2018-12-10T15:54:17.784Z,6.20
2018-12-10T15:58:56.671Z,6.10
2018-12-10T16:03:35.793Z,6.00
2018-12-10T16:08:14.596Z,5.90
2018-12-10T16:12:53.485Z,5.80
2018-12-10T16:17:32.179Z,5.70
2018-12-10T16:22:11.076Z,5.60
2018-12-10T16:26:50.008Z,5.50
2018-12-10T16:31:28.794Z,5.50
2018-12-10T16:36:07.716Z,5.40
2018-12-10T16:40:46.339Z,5.40
2018-12-10T16:45:25.210Z,5.30
2018-12-10T16:50:06.194Z,5.30
2018-12-10T16:54:44.945Z,5.40
2018-12-10T16:59:23.564Z,5.60
2018-12-10T17:08:47.787Z,5.80
2018-12-10T17:13:26.599Z,5.90
2018-12-10T17:18:05.292Z,5.90
2018-12-10T17:22:43.936Z,5.90
2018-12-10T17:27:22.817Z,5.90
2018-12-10T17:32:01.664Z,5.90
2018-12-10T17:36:40.476Z,5.90
2018-12-10T17:41:19.161Z,5.70
2018-12-10T17:45:57.979Z,5.60
2018-12-10T17:50:37.089Z,5.40
2018-12-10T17:55:15.876Z,5.30
2018-12-10T17:59:54.525Z,5.30
2018-12-10T18:04:33.225Z,5.30
2018-12-10T18:09:12.013Z,5.20
2018-12-10T18:13:50.744Z,5.10
2018-12-10T18:18:29.806Z,5.10
2018-12-10T18:23:08.706Z,5.00
2018-12-10T18:27:47.532Z,5.00
2018-12-10T18:32:26.272Z,5.00
2018-12-10T18:37:05.044Z,5.00
2018-12-10T18:41:43.780Z,5.00
2018-12-10T18:46:22.516Z,5.00
2018-12-10T18:51:01.185Z,4.90
2018-12-10T18:55:39.976Z,4.90
2018-12-10T19:00:18.848Z,4.80
2018-12-10T19:04:57.543Z,4.80
2018-12-10T19:09:36.181Z,4.90
2018-12-10T19:14:15.109Z,5.00
2018-12-10T19:18:54.008Z,5.00
2018-12-10T19:23:32.811Z,4.90
2018-12-10T19:28:11.556Z,4.90
2018-12-10T19:32:50.281Z,4.90
2018-12-10T19:37:29.241Z,4.90
2018-12-10T19:42:08.076Z,4.90
2018-12-10T19:46:46.934Z,5.00
2018-12-10T19:51:25.737Z,5.00
2018-12-10T19:56:04.541Z,5.10
2018-12-10T20:00:43.126Z,5.20
2018-12-10T20:05:23.973Z,5.20
2018-12-10T20:10:02.907Z,5.30
2018-12-10T20:14:41.728Z,5.20
2018-12-10T20:19:20.456Z,5.10
2018-12-10T20:23:59.248Z,5.00
2018-12-10T20:28:38.197Z,4.90
2018-12-10T20:33:16.939Z,4.90
2018-12-10T20:37:55.740Z,5.00
2018-12-10T20:42:34.501Z,5.00
2018-12-10T20:47:13.273Z,5.10
2018-12-10T20:51:51.999Z,5.10
2018-12-10T20:56:30.835Z,5.10
2018-12-10T21:01:09.700Z,5.00
2018-12-10T21:05:54.080Z,4.90
2018-12-10T21:10:32.988Z,4.70
2018-12-10T21:15:11.807Z,4.60
2018-12-10T21:19:50.549Z,4.40
2018-12-10T21:24:29.332Z,4.30
2018-12-10T21:29:08.018Z,4.20
2018-12-10T21:33:46.656Z,4.10
2018-12-10T21:38:25.469Z,3.90
2018-12-10T21:43:05.024Z,3.70
2018-12-10T21:47:43.887Z,3.60
2018-12-10T21:52:23.136Z,3.40
2018-12-10T21:57:01.828Z,3.30
2018-12-10T22:01:40.463Z,3.20
2018-12-10T22:06:19.259Z,3.20
2018-12-10T22:10:57.947Z,3.20
2018-12-10T22:15:36.812Z,3.30
2018-12-10T22:20:15.590Z,3.20
2018-12-10T22:24:54.276Z,3.20
2018-12-10T22:29:33.028Z,3.20
2018-12-10T22:34:11.859Z,3.10
2018-12-10T22:38:50.595Z,3.10
2018-12-10T22:43:29.553Z,3.10
2018-12-10T22:48:08.270Z,3.00
2018-12-10T22:52:47.128Z,3.00
2018-12-10T22:57:26.025Z,2.90
2018-12-10T23:02:04.716Z,2.70
2018-12-10T23:06:43.448Z,2.60
2018-12-10T23:11:22.271Z,2.60
2018-12-10T23:16:01.141Z,2.50
2018-12-10T23:20:39.859Z,2.30
2018-12-10T23:25:18.574Z,2.20
2018-12-10T23:29:57.536Z,2.10
2018-12-10T23:34:36.295Z,2.10
2018-12-10T23:39:15.137Z,2.00
2018-12-10T23:43:53.839Z,1.80
2018-12-10T23:48:32.543Z,1.60
2018-12-10T23:53:11.460Z,1.60
2018-12-10T23:57:50.309Z,1.50
